createdAt,value
2022-09-09T00:01:40.197Z,98552.19
2022-09-09T00:04:15.469Z,98553.63
2022-09-09T00:06:47.026Z,98557.97
2022-09-09T00:09:17.857Z,98543.66
2022-09-09T00:11:48.761Z,98552.06
2022-09-09T00:14:23.638Z,98547.50
2022-09-09T00:16:56.459Z,98544.44
2022-09-09T00:19:27.932Z,98549.25
2022-09-09T00:22:03.239Z,98544.78
2022-09-09T00:24:36.138Z,98547.78
2022-09-09T00:27:08.766Z,98546.19
2022-09-09T00:29:46.172Z,98543.53
2022-09-09T00:32:19.474Z,98547.38
2022-09-09T00:34:52.130Z,98543.56
2022-09-09T00:37:22.090Z,98546.31
2022-09-09T00:39:50.537Z,98535.16
2022-09-09T00:42:20.759Z,98536.97
2022-09-09T00:44:54.801Z,98539.50
2022-09-09T00:47:50.015Z,98536.56
2022-09-09T00:50:34.880Z,98544.22
2022-09-09T00:53:11.508Z,98546.75
2022-09-09T00:55:43.507Z,98532.03
2022-09-09T00:58:11.595Z,98543.16
2022-09-09T01:00:44.295Z,98537.53
2022-09-09T01:03:25.236Z,98534.78
2022-09-09T01:05:58.908Z,98530.88
2022-09-09T01:09:02.199Z,98530.22
2022-09-09T01:11:35.983Z,98531.38
2022-09-09T01:14:07.761Z,98529.47
2022-09-09T01:16:35.396Z,98534.34
2022-09-09T01:19:05.106Z,98522.88
2022-09-09T01:21:39.095Z,98525.19
2022-09-09T01:24:16.543Z,98526.59
2022-09-09T01:26:45.993Z,98530.94
2022-09-09T01:29:15.757Z,98523.84
2022-09-09T01:31:45.200Z,98533.38
2022-09-09T01:34:14.337Z,98522.66
2022-09-09T01:36:45.879Z,98529.16
2022-09-09T01:39:14.402Z,98529.16
2022-09-09T01:41:41.972Z,98534.56
2022-09-09T01:44:11.854Z,98544.97
2022-09-09T01:46:39.407Z,98533.81
2022-09-09T01:49:09.077Z,98537.72
2022-09-09T01:51:36.987Z,98544.22
2022-09-09T01:54:05.255Z,98541.88
2022-09-09T01:56:41.529Z,98541.88
2022-09-09T01:59:27.017Z,98537.31
2022-09-09T02:02:05.672Z,98528.41
2022-09-09T02:04:39.759Z,98546.25
2022-09-09T02:07:14.261Z,98538.59
2022-09-09T02:09:43.832Z,98540.63
2022-09-09T02:12:14.382Z,98535.44
2022-09-09T02:14:44.581Z,98540.41
2022-09-09T02:17:13.289Z,98536.16
2022-09-09T02:19:46.964Z,98524.81
2022-09-09T02:22:14.633Z,98529.81
2022-09-09T02:24:43.095Z,98529.28
2022-09-09T02:27:11.051Z,98532.78
2022-09-09T02:29:42.398Z,98531.59
2022-09-09T02:32:16.382Z,98530.56
2022-09-09T02:34:45.817Z,98520.88
2022-09-09T02:37:14.188Z,98531.59
2022-09-09T02:39:41.833Z,98537.75
2022-09-09T02:42:10.360Z,98535.94
2022-09-09T02:44:38.268Z,98538.06
2022-09-09T02:47:33.865Z,98523.19
2022-09-09T02:50:07.887Z,98523.09
2022-09-09T02:52:42.898Z,98520.84
2022-09-09T02:55:16.853Z,98518.81
2022-09-09T02:57:46.296Z,98514.47
2022-09-09T03:00:14.523Z,98500.25
2022-09-09T03:02:44.149Z,98504.69
2022-09-09T03:05:11.718Z,98506.50
2022-09-09T03:07:40.830Z,98511.63
2022-09-09T03:10:09.200Z,98516.72
2022-09-09T03:12:36.777Z,98528.06
2022-09-09T03:15:04.629Z,98532.44
2022-09-09T03:17:32.298Z,98525.78
2022-09-09T03:20:02.203Z,98530.34
2022-09-09T03:22:29.750Z,98531.41
2022-09-09T03:24:57.488Z,98541.25
2022-09-09T03:27:25.077Z,98540.84
2022-09-09T03:29:52.956Z,98533.53
2022-09-09T03:32:23.316Z,98537.34
2022-09-09T03:34:51.067Z,98530.88
2022-09-09T03:37:20.070Z,98533.53
2022-09-09T03:39:47.717Z,98533.41
2022-09-09T03:42:19.596Z,98541.66
2022-09-09T03:44:50.808Z,98516.59
2022-09-09T03:47:20.111Z,98521.16
2022-09-09T03:49:47.819Z,98513.09
2022-09-09T03:52:15.347Z,98521.28
2022-09-09T03:54:44.408Z,98536.16
2022-09-09T03:57:12.141Z,98521.72
2022-09-09T03:59:39.713Z,98522.34
2022-09-09T04:02:07.379Z,98518.00
2022-09-09T04:04:34.995Z,98517.91
2022-09-09T04:07:02.554Z,98514.41
2022-09-09T04:09:30.454Z,98519.59
2022-09-09T04:11:59.331Z,98528.41
2022-09-09T04:14:29.703Z,98526.50
2022-09-09T04:16:59.223Z,98525.13
2022-09-09T04:19:26.890Z,98527.88
2022-09-09T04:21:54.601Z,98526.41
2022-09-09T04:24:22.496Z,98521.09
2022-09-09T04:26:50.182Z,98524.91
2022-09-09T04:29:19.050Z,98525.97
2022-09-09T04:31:46.710Z,98519.91
2022-09-09T04:34:14.326Z,98530.13
2022-09-09T04:36:41.980Z,98534.16
2022-09-09T04:39:09.725Z,98539.03
2022-09-09T04:41:37.449Z,98541.06
2022-09-09T04:44:05.090Z,98540.31
2022-09-09T04:46:35.210Z,98552.41
2022-09-09T04:49:02.790Z,98554.44
2022-09-09T04:51:32.103Z,98546.88
2022-09-09T04:53:59.675Z,98551.78
2022-09-09T04:56:29.230Z,98554.22
2022-09-09T04:58:56.872Z,98555.59
2022-09-09T05:01:25.515Z,98556.34
2022-09-09T05:03:54.537Z,98552.94
2022-09-09T05:06:23.289Z,98558.47
2022-09-09T05:08:50.933Z,98565.03
2022-09-09T05:11:19.593Z,98558.91
2022-09-09T05:13:47.750Z,98567.38
2022-09-09T05:16:15.938Z,98567.91
2022-09-09T05:18:44.613Z,98566.84
2022-09-09T05:21:14.307Z,98558.47
2022-09-09T05:23:42.384Z,98563.13
2022-09-09T05:26:17.468Z,98564.59
2022-09-09T05:28:46.015Z,98574.38
2022-09-09T05:31:14.611Z,98562.91
2022-09-09T05:33:43.975Z,98570.25
2022-09-09T05:36:15.126Z,98572.38
2022-09-09T05:38:43.227Z,98567.28
2022-09-09T05:41:12.151Z,98570.66
2022-09-09T05:43:40.393Z,98566.63
2022-09-09T05:46:09.075Z,98573.09
2022-09-09T05:48:38.276Z,98567.22
2022-09-09T05:51:07.751Z,98559.91
2022-09-09T05:53:36.751Z,98576.97
2022-09-09T05:56:05.852Z,98577.56
2022-09-09T05:58:33.556Z,98589.56
2022-09-09T06:01:05.868Z,98587.63
2022-09-09T06:03:33.744Z,98593.13
2022-09-09T06:06:02.306Z,98590.25
2022-09-09T06:08:30.424Z,98597.66
2022-09-09T06:11:04.963Z,98591.72
2022-09-09T06:13:32.973Z,98589.19
2022-09-09T06:16:01.520Z,98590.31
2022-09-09T06:18:29.194Z,98591.53
2022-09-09T06:20:58.069Z,98590.13
2022-09-09T06:23:26.231Z,98591.59
2022-09-09T06:25:53.768Z,98594.72
2022-09-09T06:28:22.662Z,98584.56
2022-09-09T06:30:50.179Z,98586.41
2022-09-09T06:33:17.699Z,98586.50
2022-09-09T06:35:53.981Z,98581.81
2022-09-09T06:38:22.648Z,98581.31
2022-09-09T06:40:53.870Z,98584.19
2022-09-09T06:43:22.895Z,98589.44
2022-09-09T06:45:57.554Z,98583.16
2022-09-09T06:48:26.844Z,98583.38
2022-09-09T06:51:02.548Z,98579.63
2022-09-09T06:53:30.826Z,98583.72
2022-09-09T06:55:58.551Z,98582.69
2022-09-09T06:58:27.479Z,98580.66
2022-09-09T07:00:55.069Z,98580.91
2022-09-09T07:03:22.659Z,98574.38
2022-09-09T07:05:57.051Z,98581.75
2022-09-09T07:08:25.686Z,98586.00
2022-09-09T07:10:54.757Z,98582.59
2022-09-09T07:13:27.287Z,98590.84
2022-09-09T07:15:54.929Z,98591.66
2022-09-09T07:18:22.474Z,98592.50
2022-09-09T07:20:55.886Z,98592.97
2022-09-09T07:23:23.492Z,98593.56
2022-09-09T07:25:53.188Z,98593.66
2022-09-09T07:28:20.753Z,98597.16
2022-09-09T07:30:56.718Z,98596.03
2022-09-09T07:33:24.879Z,98598.28
2022-09-09T07:35:52.681Z,98599.34
2022-09-09T07:38:20.564Z,98595.41
2022-09-09T07:40:48.358Z,98596.31
2022-09-09T07:43:19.730Z,98603.06
2022-09-09T07:45:48.006Z,98599.75
2022-09-09T07:48:16.897Z,98601.63
2022-09-09T07:50:44.456Z,98603.63
2022-09-09T07:53:12.023Z,98607.81
2022-09-09T07:55:39.628Z,98603.97
2022-09-09T07:58:07.201Z,98609.84
2022-09-09T08:00:35.186Z,98614.47
2022-09-09T08:03:03.182Z,98617.78
2022-09-09T08:05:32.116Z,98608.25
2022-09-09T08:07:59.658Z,98619.41
2022-09-09T08:10:27.374Z,98621.66
2022-09-09T08:13:14.690Z,98620.72
2022-09-09T08:15:44.289Z,98619.34
2022-09-09T08:18:11.863Z,98615.16
2022-09-09T08:20:40.772Z,98615.75
2022-09-09T08:23:08.698Z,98620.69
2022-09-09T08:25:36.403Z,98630.38
2022-09-09T08:28:04.640Z,98622.72
2022-09-09T08:30:32.154Z,98628.09
2022-09-09T08:33:00.937Z,98624.72
2022-09-09T08:35:28.522Z,98628.03
2022-09-09T08:37:58.147Z,98629.66
2022-09-09T08:40:30.205Z,98632.63
2022-09-09T08:42:59.914Z,98625.59
2022-09-09T08:45:32.588Z,98628.97
2022-09-09T08:48:12.076Z,98626.44
2022-09-09T08:50:41.725Z,98622.06
2022-09-09T08:53:18.373Z,98628.97
2022-09-09T08:55:49.425Z,98623.31
2022-09-09T08:58:19.130Z,98626.56
2022-09-09T09:00:55.507Z,98628.28
2022-09-09T09:03:31.100Z,98609.94
2022-09-09T09:06:04.005Z,98634.19
2022-09-09T09:08:39.272Z,98638.25
2022-09-09T09:11:07.651Z,98629.22
2022-09-09T09:13:47.677Z,98624.56
2022-09-09T09:16:21.965Z,98622.81
2022-09-09T09:18:49.660Z,98624.06
2022-09-09T09:21:21.447Z,98615.88
2022-09-09T09:23:54.234Z,98618.63
2022-09-09T09:26:23.140Z,98622.09
2022-09-09T09:28:51.194Z,98612.66
2022-09-09T09:31:20.346Z,98624.72
2022-09-09T09:33:50.517Z,98624.13
2022-09-09T09:36:18.594Z,98621.38
2022-09-09T09:41:46.592Z,98616.88
2022-09-09T09:44:25.301Z,98626.22
2022-09-09T09:46:53.032Z,98630.75
2022-09-09T09:49:20.949Z,98618.53
2022-09-09T09:51:48.903Z,98624.34
2022-09-09T09:54:29.864Z,98621.09
2022-09-09T09:56:58.340Z,98623.31
2022-09-09T09:59:39.522Z,98619.50
2022-09-09T10:02:21.902Z,98613.75
2022-09-09T10:04:49.685Z,98620.16
2022-09-09T10:07:20.839Z,98613.03
2022-09-09T10:09:53.944Z,98614.38
2022-09-09T10:12:29.813Z,98604.69
2022-09-09T10:15:03.773Z,98608.38
2022-09-09T10:17:37.192Z,98611.84
2022-09-09T10:20:18.996Z,98611.06
2022-09-09T10:22:49.568Z,98607.88
2022-09-09T10:25:29.571Z,98608.03
2022-09-09T10:28:12.586Z,98615.03
2022-09-09T10:30:50.278Z,98618.53
2022-09-09T10:33:25.128Z,98606.66
2022-09-09T10:35:59.107Z,98613.41
2022-09-09T10:38:31.137Z,98611.88
2022-09-09T10:41:28.500Z,98606.44
2022-09-09T10:44:09.052Z,98602.38
2022-09-09T10:46:46.578Z,98600.38
2022-09-09T10:49:24.189Z,98596.22
2022-09-09T10:51:57.327Z,98598.31
2022-09-09T10:54:33.083Z,98595.78
2022-09-09T10:57:05.017Z,98593.09
2022-09-09T10:59:36.056Z,98596.66
2022-09-09T11:02:08.435Z,98599.63
2022-09-09T11:04:38.756Z,98596.09
2022-09-09T11:07:11.872Z,98591.81
2022-09-09T11:09:43.556Z,98600.47
2022-09-09T11:12:15.259Z,98602.09
2022-09-09T11:14:45.692Z,98597.16
2022-09-09T11:17:17.447Z,98589.41
2022-09-09T11:19:46.158Z,98587.72
2022-09-09T11:22:20.703Z,98594.19
2022-09-09T11:24:52.391Z,98601.69
2022-09-09T11:27:25.802Z,98595.50
2022-09-09T11:30:07.198Z,98591.88
2022-09-09T11:33:03.586Z,98602.06
2022-09-09T11:35:42.383Z,98592.09
2022-09-09T11:38:18.860Z,98594.63
2022-09-09T11:40:47.323Z,98592.63
2022-09-09T11:43:19.522Z,98586.44
2022-09-09T11:45:57.398Z,98600.59
2022-09-09T11:48:31.625Z,98601.66
2022-09-09T11:51:01.207Z,98615.28
2022-09-09T11:53:28.907Z,98619.00
2022-09-09T11:56:05.652Z,98612.16
2022-09-09T11:58:41.595Z,98622.66
2022-09-09T12:01:16.791Z,98620.88
2022-09-09T12:03:47.844Z,98627.97
2022-09-09T12:06:18.594Z,98626.28
2022-09-09T12:08:48.814Z,98634.19
2022-09-09T12:11:27.171Z,98636.00
2022-09-09T12:13:58.155Z,98623.56
2022-09-09T12:16:34.116Z,98625.88
2022-09-09T12:19:07.574Z,98625.53
2022-09-09T12:21:39.911Z,98620.38
2022-09-09T12:24:10.525Z,98622.19
2022-09-09T12:26:40.862Z,98618.75
2022-09-09T12:29:16.182Z,98631.28
2022-09-09T12:31:46.906Z,98627.16
2022-09-09T12:34:17.558Z,98632.97
2022-09-09T12:36:51.841Z,98627.69
2022-09-09T12:39:26.977Z,98626.59
2022-09-09T12:41:58.306Z,98619.84
2022-09-09T12:44:29.006Z,98616.06
2022-09-09T12:46:57.867Z,98612.16
2022-09-09T12:49:29.918Z,98615.72
2022-09-09T12:51:59.546Z,98617.56
2022-09-09T12:54:27.150Z,98610.50
2022-09-09T12:56:54.812Z,98610.22
2022-09-09T12:59:28.430Z,98607.25
2022-09-09T13:01:59.746Z,98601.19
2022-09-09T13:04:27.824Z,98598.06
2022-09-09T13:06:56.382Z,98602.28
2022-09-09T13:09:24.026Z,98592.13
2022-09-09T13:11:53.581Z,98607.59
2022-09-09T13:14:22.648Z,98593.81
2022-09-09T13:16:59.108Z,98601.34
2022-09-09T13:19:28.821Z,98589.38
2022-09-09T13:21:56.680Z,98586.84
2022-09-09T13:24:30.282Z,98591.06
2022-09-09T13:26:59.012Z,98595.88
2022-09-09T13:29:26.648Z,98585.00
2022-09-09T13:31:56.559Z,98586.22
2022-09-09T13:34:34.436Z,98588.31
2022-09-09T13:37:04.358Z,98586.50
2022-09-09T13:39:32.115Z,98577.91
2022-09-09T13:41:59.851Z,98590.72
2022-09-09T13:44:29.351Z,98587.19
2022-09-09T13:47:09.591Z,98593.50
2022-09-09T13:49:39.646Z,98595.47
2022-09-09T13:52:12.602Z,98592.34
2022-09-09T13:54:40.293Z,98594.84
2022-09-09T13:57:08.108Z,98596.38
2022-09-09T13:59:54.304Z,98597.44
2022-09-09T14:02:24.138Z,98591.59
2022-09-09T14:04:56.228Z,98582.97
2022-09-09T14:07:24.159Z,98591.94
2022-09-09T14:09:52.704Z,98588.81
2022-09-09T14:12:21.045Z,98586.94
2022-09-09T14:14:48.637Z,98587.03
2022-09-09T14:17:18.394Z,98591.84
2022-09-09T14:19:46.000Z,98578.13
2022-09-09T14:22:14.886Z,98587.03
2022-09-09T14:24:42.777Z,98585.47
2022-09-09T14:27:10.431Z,98587.03
2022-09-09T14:29:38.155Z,98598.25
2022-09-09T14:32:09.480Z,98598.50
2022-09-09T14:34:40.241Z,98592.78
2022-09-09T14:37:11.748Z,98597.84
2022-09-09T14:39:40.664Z,98591.22
2022-09-09T14:42:09.657Z,98589.38
2022-09-09T14:44:38.458Z,98591.16
2022-09-09T14:47:06.276Z,98588.59
2022-09-09T14:49:33.928Z,98573.50
2022-09-09T14:52:01.790Z,98566.63
2022-09-09T14:54:29.637Z,98572.56
2022-09-09T14:56:58.870Z,98561.72
2022-09-09T14:59:26.610Z,98554.53
2022-09-09T15:01:54.480Z,98546.94
2022-09-09T15:04:22.920Z,98551.59
2022-09-09T15:06:53.264Z,98553.00
2022-09-09T15:09:20.852Z,98546.50
2022-09-09T15:11:48.529Z,98545.00
2022-09-09T15:14:22.332Z,98545.78
2022-09-09T15:16:52.980Z,98549.44
2022-09-09T15:19:20.422Z,98551.66
2022-09-09T15:21:48.378Z,98555.13
2022-09-09T15:24:17.038Z,98557.38
2022-09-09T15:26:44.544Z,98574.09
2022-09-09T15:29:12.196Z,98582.13
2022-09-09T15:31:41.135Z,98581.22
2022-09-09T15:34:09.553Z,98583.94
2022-09-09T15:36:38.887Z,98579.09
2022-09-09T15:39:08.110Z,98588.84
2022-09-09T15:41:35.934Z,98585.47
2022-09-09T15:44:04.055Z,98579.72
2022-09-09T15:46:33.280Z,98587.34
2022-09-09T15:49:07.454Z,98604.25
2022-09-09T15:51:42.570Z,98601.72
2022-09-09T15:54:13.497Z,98603.28
2022-09-09T15:56:41.705Z,98606.19
2022-09-09T15:59:09.252Z,98604.06
2022-09-09T16:01:37.322Z,98604.38
2022-09-09T16:04:06.467Z,98603.59
2022-09-09T16:06:34.295Z,98608.88
2022-09-09T16:09:02.870Z,98611.72
2022-09-09T16:11:34.236Z,98621.03
2022-09-09T16:14:02.205Z,98627.28
2022-09-09T16:16:30.849Z,98626.78
2022-09-09T16:18:59.513Z,98638.16
2022-09-09T16:21:30.028Z,98635.31
2022-09-09T16:24:00.271Z,98634.41
2022-09-09T16:26:29.449Z,98636.16
2022-09-09T16:28:58.429Z,98649.13
2022-09-09T16:31:26.415Z,98638.38
2022-09-09T16:33:54.449Z,98637.97
2022-09-09T16:36:24.286Z,98639.34
2022-09-09T16:38:56.079Z,98647.34
2022-09-09T16:41:23.887Z,98647.53
2022-09-09T16:43:54.904Z,98657.94
2022-09-09T16:46:23.268Z,98658.63
2022-09-09T16:48:51.132Z,98657.94
2022-09-09T16:51:20.268Z,98656.06
2022-09-09T16:53:48.331Z,98655.47
2022-09-09T16:56:19.625Z,98652.94
2022-09-09T16:58:51.788Z,98649.56
2022-09-09T17:01:19.380Z,98648.84
2022-09-09T17:03:47.052Z,98645.31
2022-09-09T17:06:16.280Z,98636.00
2022-09-09T17:08:44.176Z,98634.53
2022-09-09T17:11:15.525Z,98638.97
2022-09-09T17:13:45.156Z,98631.09
2022-09-09T17:16:13.550Z,98640.44
2022-09-09T17:18:41.442Z,98638.09
2022-09-09T17:21:11.670Z,98638.66
2022-09-09T17:23:44.785Z,98637.44
2022-09-09T17:26:14.220Z,98638.47
2022-09-09T17:28:44.291Z,98638.25
2022-09-09T17:31:14.191Z,98640.38
2022-09-09T17:33:43.802Z,98638.78
2022-09-09T17:36:12.841Z,98635.63
2022-09-09T17:38:40.663Z,98643.31
2022-09-09T17:41:10.049Z,98642.72
2022-09-09T17:43:38.493Z,98648.47
2022-09-09T17:46:13.329Z,98646.31
2022-09-09T17:48:41.500Z,98649.66
2022-09-09T17:51:10.893Z,98652.72
2022-09-09T17:53:39.912Z,98674.03
2022-09-09T17:56:09.531Z,98674.91
2022-09-09T17:58:37.395Z,98680.97
2022-09-09T18:01:06.108Z,98683.53
2022-09-09T18:03:37.063Z,98691.72
2022-09-09T18:06:06.081Z,98689.06
2022-09-09T18:08:37.015Z,98694.78
2022-09-09T18:11:05.536Z,98696.00
2022-09-09T18:13:33.329Z,98702.47
2022-09-09T18:16:01.549Z,98706.84
2022-09-09T18:18:30.179Z,98709.06
2022-09-09T18:21:03.869Z,98712.03
2022-09-09T18:23:32.252Z,98718.63
2022-09-09T18:25:59.992Z,98710.66
2022-09-09T18:28:27.852Z,98718.63
2022-09-09T18:30:55.559Z,98720.03
2022-09-09T18:33:23.192Z,98719.06
2022-09-09T18:35:50.755Z,98717.59
2022-09-09T18:38:19.735Z,98736.81
2022-09-09T18:40:47.351Z,98741.38
2022-09-09T18:43:14.990Z,98747.13
2022-09-09T18:45:42.554Z,98747.97
2022-09-09T18:48:11.425Z,98746.25
2022-09-09T18:50:39.027Z,98738.41
2022-09-09T18:53:06.746Z,98733.94
2022-09-09T18:55:35.694Z,98733.63
2022-09-09T18:58:03.723Z,98733.53
2022-09-09T19:00:32.564Z,98738.09
2022-09-09T19:03:00.117Z,98740.63
2022-09-09T19:05:27.830Z,98734.06
2022-09-09T19:07:55.861Z,98740.94
2022-09-09T19:10:23.403Z,98739.88
2022-09-09T19:12:52.792Z,98735.22
2022-09-09T19:15:20.393Z,98733.06
2022-09-09T19:17:47.980Z,98735.00
2022-09-09T19:20:16.395Z,98732.75
2022-09-09T19:22:43.973Z,98721.38
2022-09-09T19:25:11.626Z,98727.53
2022-09-09T19:27:39.201Z,98733.69
2022-09-09T19:30:09.934Z,98723.47
2022-09-09T19:32:52.603Z,98724.56
2022-09-09T19:35:21.013Z,98717.56
2022-09-09T19:37:48.641Z,98709.81
2022-09-09T19:40:16.411Z,98715.81
2022-09-09T19:42:48.058Z,98711.69
2022-09-09T19:45:16.975Z,98714.75
2022-09-09T19:47:44.522Z,98710.94
2022-09-09T19:50:12.078Z,98716.84
2022-09-09T19:52:39.634Z,98723.13
2022-09-09T19:55:08.089Z,98722.63
2022-09-09T19:57:35.646Z,98732.34
2022-09-09T20:00:04.058Z,98733.72
2022-09-09T20:02:33.677Z,98730.66
2022-09-09T20:05:01.321Z,98729.38
2022-09-09T20:07:28.906Z,98730.09
2022-09-09T20:09:56.546Z,98726.06
2022-09-09T20:12:24.091Z,98727.75
2022-09-09T20:14:51.666Z,98725.31
2022-09-09T20:17:19.216Z,98727.88
2022-09-09T20:19:48.084Z,98722.97
2022-09-09T20:22:16.587Z,98726.88
2022-09-09T20:24:44.250Z,98735.19
2022-09-09T20:27:11.749Z,98737.06
2022-09-09T20:29:39.515Z,98727.28
2022-09-09T20:32:07.381Z,98733.16
2022-09-09T20:34:34.946Z,98733.72
2022-09-09T20:37:04.679Z,98728.97
2022-09-09T20:39:32.351Z,98728.53
2022-09-09T20:42:00.415Z,98734.22
2022-09-09T20:44:29.640Z,98730.84
2022-09-09T20:47:02.654Z,98726.47
2022-09-09T20:49:30.207Z,98731.28
2022-09-09T20:51:57.772Z,98729.03
2022-09-09T20:54:30.112Z,98734.94
2022-09-09T20:56:58.894Z,98741.72
2022-09-09T20:59:28.148Z,98735.28
2022-09-09T21:01:56.821Z,98726.22
2022-09-09T21:04:26.028Z,98731.44
2022-09-09T21:06:53.797Z,98731.13
2022-09-09T21:09:23.107Z,98728.97
2022-09-09T21:11:53.424Z,98727.22
2022-09-09T21:14:20.932Z,98731.97
2022-09-09T21:16:48.561Z,98729.97
2022-09-09T21:19:16.118Z,98731.44
2022-09-09T21:21:44.010Z,98735.28
2022-09-09T21:24:12.019Z,98733.78
2022-09-09T21:26:39.676Z,98731.44
2022-09-09T21:29:08.900Z,98723.31
2022-09-09T21:31:37.372Z,98734.19
2022-09-09T21:34:05.294Z,98723.03
2022-09-09T21:36:33.688Z,98720.38
2022-09-09T21:39:01.236Z,98725.47
2022-09-09T21:41:28.900Z,98719.31
2022-09-09T21:43:56.653Z,98721.22
2022-09-09T21:46:28.097Z,98728.31
2022-09-09T21:48:56.899Z,98725.31
2022-09-09T21:51:25.295Z,98719.06
2022-09-09T21:53:55.992Z,98726.81
2022-09-09T21:56:23.566Z,98728.53
2022-09-09T21:58:55.870Z,98740.06
2022-09-09T22:01:25.989Z,98738.81
2022-09-09T22:03:53.673Z,98741.69
2022-09-09T22:06:21.271Z,98739.88
2022-09-09T22:08:48.924Z,98738.38
2022-09-09T22:13:44.697Z,98731.66
2022-09-09T22:18:42.375Z,98735.34
2022-09-09T22:23:46.556Z,98710.72
2022-09-09T22:26:15.153Z,98737.66
2022-09-09T22:28:42.302Z,98732.25
2022-09-09T22:33:37.634Z,98738.69
2022-09-09T22:36:05.977Z,98702.47
2022-09-09T22:38:36.509Z,98733.41
2022-09-09T22:41:07.422Z,98743.13
2022-09-09T22:43:35.011Z,98738.78
2022-09-09T22:46:02.783Z,98750.59
2022-09-09T22:48:33.902Z,98740.28
2022-09-09T22:51:03.661Z,98753.53
2022-09-09T22:53:32.626Z,98752.78
2022-09-09T22:56:01.720Z,98755.81
2022-09-09T22:58:32.608Z,98757.72
2022-09-09T23:01:00.932Z,98751.28
2022-09-09T23:03:29.178Z,98752.13
2022-09-09T23:05:57.498Z,98745.03
2022-09-09T23:08:26.633Z,98747.19
2022-09-09T23:10:55.483Z,98745.50
2022-09-09T23:13:24.117Z,98735.66
2022-09-09T23:15:55.122Z,98735.66
2022-09-09T23:18:24.162Z,98736.69
2022-09-09T23:21:00.536Z,98738.09
2022-09-09T23:23:28.603Z,98742.81
2022-09-09T23:25:56.383Z,98738.66
2022-09-09T23:28:26.751Z,98734.22
2022-09-09T23:30:55.836Z,98743.50
2022-09-09T23:33:23.687Z,98734.25
2022-09-09T23:35:59.561Z,98748.41
2022-09-09T23:38:28.425Z,98753.91
2022-09-09T23:40:56.284Z,98749.28
2022-09-09T23:43:27.111Z,98737.84
2022-09-09T23:45:56.925Z,98744.00
2022-09-09T23:48:28.066Z,98750.63
2022-09-09T23:50:55.691Z,98746.53
2022-09-09T23:53:23.391Z,98738.97
2022-09-09T23:55:50.997Z,98744.66
2022-09-09T23:58:18.657Z,98746.00
